Time;durP1;ratioP1;P1;durP2;ratioP2;P2;SDS_P1;SDS_P2;PMS_P1;PMS_P2;Temp;Humidity;BMP_temperature;BMP_pressure;BME280_temperature;BME280_humidity;BME280_pressure;Samples;Min_cycle;Max_cycle;Signal;HPM_P1;HPM_P2
2020/12/24 00:01:25;;;;;;;38.33;32.33;;;;;;;;;;5020043;28;20412;-76
2020/12/24 00:03:54;;;;;;;38.17;31.20;;;;;;;;;;5013427;28;20434;-77
2020/12/24 00:06:20;;;;;;;35.73;29.17;;;;;;;;;;5011409;28;20781;-77
2020/12/24 00:08:47;;;;;;;35.40;29.92;;;;;;;;;;5012585;28;20408;-77
2020/12/24 00:11:14;;;;;;;34.42;29.58;;;;;;;;;;4995174;28;20404;-76
2020/12/24 00:13:40;;;;;;;35.83;29.80;;;;;;;;;;5011439;28;20939;-77
2020/12/24 00:16:06;;;;;;;35.80;31.30;;;;;;;;;;5011414;28;20425;-77
2020/12/24 00:18:32;;;;;;;35.55;29.75;;;;;;;;;;5010357;28;20415;-77
2020/12/24 00:20:59;;;;;;;37.28;30.27;;;;;;;;;;5011295;28;20403;-77
2020/12/24 00:23:25;;;;;;;34.73;30.90;;;;;;;;;;4992451;28;20442;-77
2020/12/24 00:25:51;;;;;;;39.92;33.25;;;;;;;;;;5010215;28;20424;-77
2020/12/24 00:28:18;;;;;;;36.10;29.23;;;;;;;;;;5014237;28;20432;-77
2020/12/24 00:30:44;;;;;;;32.88;28.13;;;;;;;;;;5011209;28;20824;-77
2020/12/24 00:33:11;;;;;;;34.20;28.20;;;;;;;;;;5009693;28;20452;-77
2020/12/24 00:35:37;;;;;;;31.80;27.75;;;;;;;;;;4993968;28;20401;-77
2020/12/24 00:38:03;;;;;;;36.92;30.95;;;;;;;;;;5004897;28;20401;-77
2020/12/24 00:40:29;;;;;;;35.70;29.40;;;;;;;;;;4993668;28;20413;-77
2020/12/24 00:42:55;;;;;;;33.90;28.55;;;;;;;;;;5011394;28;20404;-77
2020/12/24 00:45:23;;;;;;;40.60;33.67;;;;;;;;;;5009847;28;20809;-77
2020/12/24 00:47:50;;;;;;;44.65;36.53;;;;;;;;;;5013728;28;20409;-77
2020/12/24 00:50:16;;;;;;;48.53;37.35;;;;;;;;;;5010874;28;20887;-77
2020/12/24 00:52:42;;;;;;;36.95;31.92;;;7.00;99.90;;;;;;5012329;28;20486;-77
2020/12/24 00:55:08;;;;;;;34.58;30.15;;;6.60;99.90;;;;;;4997342;28;20968;-77
2020/12/24 00:57:34;;;;;;;39.47;33.42;;;6.60;99.90;;;;;;4997435;28;20408;-77
2020/12/24 01:00:00;;;;;;;41.45;36.63;;;6.70;99.90;;;;;;5011341;28;20401;-77
2020/12/24 01:02:27;;;;;;;42.10;36.78;;;6.60;99.90;;;;;;4996696;28;20412;-77
2020/12/24 01:04:52;;;;;;;47.05;38.90;;;6.50;99.90;;;;;;4994754;28;20408;-77
2020/12/24 01:07:18;;;;;;;46.77;38.00;;;;;;;;;;4996929;28;20411;-77
2020/12/24 01:09:45;;;;;;;37.40;33.25;;;;;;;;;;4997100;28;20466;-77
2020/12/24 01:12:10;;;;;;;37.03;32.27;;;6.60;99.90;;;;;;5009838;28;20408;-77
2020/12/24 01:14:36;;;;;;;38.67;32.65;;;6.70;99.90;;;;;;5014342;28;20752;-77
2020/12/24 01:17:05;;;;;;;36.85;32.22;;;6.70;99.90;;;;;;5013215;28;20397;-77
2020/12/24 01:19:32;;;;;;;38.28;31.38;;;6.80;99.90;;;;;;5014109;28;20403;-77
2020/12/24 01:22:04;;;;;;;36.55;31.95;;;6.80;99.90;;;;;;5014555;28;20394;-77
2020/12/24 01:24:30;;;;;;;43.53;35.33;;;6.80;99.90;;;;;;5014319;28;20443;-77
2020/12/24 01:26:56;;;;;;;35.42;30.60;;;6.80;99.90;;;;;;4996647;28;20413;-77
2020/12/24 01:29:21;;;;;;;37.17;30.38;;;6.80;99.90;;;;;;5013933;28;20397;-77
2020/12/24 01:31:48;;;;;;;36.45;31.42;;;6.80;99.90;;;;;;5014177;28;20523;-77
2020/12/24 01:34:15;;;;;;;38.08;31.23;;;6.80;99.90;;;;;;5012717;28;20403;-77
2020/12/24 01:36:42;;;;;;;35.55;31.75;;;6.80;99.90;;;;;;5012877;28;20828;-77
2020/12/24 01:39:08;;;;;;;38.63;33.10;;;6.80;99.90;;;;;;5013689;28;20762;-77
2020/12/24 01:41:34;;;;;;;35.75;31.25;;;6.80;99.90;;;;;;5013981;28;20823;-77
2020/12/24 01:44:00;;;;;;;45.65;36.67;;;6.80;99.90;;;;;;5017405;28;20484;-77
2020/12/24 01:46:26;;;;;;;35.73;31.87;;;6.70;99.90;;;;;;4995830;28;20516;-77
2020/12/24 01:48:53;;;;;;;36.88;32.13;;;6.60;99.90;;;;;;4996362;28;20420;-77
2020/12/24 01:51:24;;;;;;;39.22;34.85;;;6.70;99.90;;;;;;5012235;28;20397;-77
2020/12/24 01:53:52;;;;;;;37.47;33.08;;;6.70;99.90;;;;;;4996243;28;20408;-77
2020/12/24 01:56:18;;;;;;;41.28;36.35;;;6.70;99.90;;;;;;5012513;28;20459;-77
2020/12/24 01:58:44;;;;;;;38.17;33.42;;;6.70;99.90;;;;;;5012371;28;20424;-77
2020/12/24 02:01:10;;;;;;;39.90;33.30;;;6.60;99.90;;;;;;5013910;28;20476;-77
2020/12/24 02:03:42;;;;;;;35.85;30.77;;;6.60;99.90;;;;;;4998184;23;20521;-76
2020/12/24 02:06:08;;;;;;;36.60;31.45;;;6.60;99.90;;;;;;4992221;28;20419;-75
2020/12/24 02:08:33;;;;;;;35.35;31.42;;;6.70;99.90;;;;;;4992426;28;20409;-76
2020/12/24 02:11:00;;;;;;;34.00;29.45;;;6.70;99.90;;;;;;4991782;28;20426;-76
2020/12/24 02:13:26;;;;;;;34.70;30.03;;;6.70;99.90;;;;;;4998710;28;21060;-76
2020/12/24 02:15:52;;;;;;;36.25;32.25;;;6.70;99.90;;;;;;4993564;28;20398;-76
2020/12/24 02:18:20;;;;;;;33.17;29.55;;;6.70;99.90;;;;;;4993641;28;20849;-76
2020/12/24 02:20:46;;;;;;;35.15;30.55;;;6.70;99.90;;;;;;4996932;28;20400;-76
2020/12/24 02:23:13;;;;;;;36.65;32.75;;;6.70;99.90;;;;;;4995102;28;20886;-76
2020/12/24 02:25:40;;;;;;;33.35;29.65;;;6.60;99.90;;;;;;4994861;28;20414;-76
2020/12/24 02:28:06;;;;;;;35.53;29.90;;;6.60;99.90;;;;;;4995425;28;20402;-76
2020/12/24 02:30:32;;;;;;;41.22;34.10;;;6.60;99.90;;;;;;4996016;28;20904;-75
2020/12/24 02:32:58;;;;;;;37.67;33.50;;;6.60;99.90;;;;;;4994841;28;20403;-76
2020/12/24 02:35:24;;;;;;;41.80;36.30;;;6.60;99.90;;;;;;4994900;28;20452;-76
2020/12/24 02:37:51;;;;;;;42.00;35.65;;;6.50;99.90;;;;;;4996992;28;20405;-76
2020/12/24 02:40:17;;;;;;;41.95;33.35;;;6.50;99.90;;;;;;4995371;28;20438;-76
2020/12/24 02:42:43;;;;;;;36.47;31.20;;;6.50;99.90;;;;;;4991695;28;20443;-76
2020/12/24 02:45:09;;;;;;;35.97;32.07;;;6.60;99.90;;;;;;4993155;28;20821;-76
2020/12/24 02:47:37;;;;;;;37.67;32.33;;;6.60;99.90;;;;;;4993091;28;20414;-76
2020/12/24 02:50:04;;;;;;;34.15;30.45;;;6.60;99.90;;;;;;4993117;28;20409;-76
2020/12/24 02:52:30;;;;;;;39.42;35.10;;;6.70;99.90;;;;;;4992953;28;20442;-76
2020/12/24 02:54:59;;;;;;;46.13;38.30;;;6.60;99.90;;;;;;4993000;28;20485;-76
2020/12/24 02:57:25;;;;;;;37.78;32.90;;;6.60;99.90;;;;;;4992929;28;20394;-75
2020/12/24 02:59:51;;;;;;;43.60;37.03;;;6.50;99.90;;;;;;4994633;28;20393;-76
2020/12/24 03:02:17;;;;;;;36.90;32.83;;;6.50;99.90;;;;;;4993215;28;20478;-75
2020/12/24 03:04:45;;;;;;;35.87;31.90;;;6.50;99.90;;;;;;4977341;28;20447;-75
2020/12/24 03:07:11;;;;;;;44.78;36.53;;;6.60;99.90;;;;;;4991082;28;20450;-76
2020/12/24 03:09:37;;;;;;;42.10;35.93;;;6.60;99.90;;;;;;4996603;28;20430;-76
2020/12/24 03:12:05;;;;;;;37.85;33.53;;;6.50;99.90;;;;;;4993240;28;20401;-76
2020/12/24 03:14:31;;;;;;;36.70;32.38;;;6.60;99.90;;;;;;4975138;28;20494;-75
2020/12/24 03:16:57;;;;;;;36.72;32.72;;;6.60;99.90;;;;;;4981987;28;20540;-76
2020/12/24 03:19:23;;;;;;;37.57;32.00;;;6.60;99.90;;;;;;4997666;28;20449;-76
2020/12/24 03:21:49;;;;;;;41.38;36.08;;;6.60;99.90;;;;;;4996370;28;20922;-75
2020/12/24 03:24:15;;;;;;;39.08;33.35;;;6.60;99.90;;;;;;5002857;28;20389;-76
2020/12/24 03:26:40;;;;;;;37.75;33.35;;;6.60;99.90;;;;;;4980801;28;20775;-75
2020/12/24 03:29:07;;;;;;;40.10;33.27;;;6.60;99.90;;;;;;4982451;28;20933;-76
2020/12/24 03:31:33;;;;;;;39.67;34.25;;;6.80;99.90;;;;;;4999532;28;20437;-75
2020/12/24 03:33:59;;;;;;;37.38;32.80;;;6.80;99.90;;;;;;4993405;28;20422;-75
2020/12/24 03:36:25;;;;;;;43.07;34.93;;;6.70;99.90;;;;;;4989881;28;20448;-76
2020/12/24 03:38:51;;;;;;;40.20;33.58;;;6.60;99.90;;;;;;5002546;28;20403;-76
2020/12/24 03:41:17;;;;;;;37.97;33.40;;;6.60;99.90;;;;;;4979015;28;20402;-76
2020/12/24 03:43:43;;;;;;;35.70;31.07;;;6.60;99.90;;;;;;4999238;28;20392;-76
2020/12/24 03:46:10;;;;;;;35.10;30.63;;;6.60;99.90;;;;;;4996475;28;20517;-76
2020/12/24 03:48:36;;;;;;;36.78;31.85;;;6.60;99.90;;;;;;4979573;28;20805;-75
2020/12/24 03:51:02;;;;;;;39.22;34.92;;;6.60;99.90;;;;;;5002711;28;20395;-76
2020/12/24 03:53:28;;;;;;;40.17;34.33;;;6.50;99.90;;;;;;4977122;28;20406;-76
2020/12/24 03:55:54;;;;;;;37.22;32.35;;;6.40;99.90;;;;;;4977552;28;20402;-76
2020/12/24 03:58:19;;;;;;;38.42;33.28;;;6.40;99.90;;;;;;4993128;28;20395;-76
2020/12/24 04:00:45;;;;;;;37.70;32.70;;;6.40;99.90;;;;;;4992613;28;20422;-76
2020/12/24 04:03:12;;;;;;;36.47;32.47;;;6.40;99.90;;;;;;4978382;28;20403;-76
2020/12/24 04:05:38;;;;;;;36.72;30.80;;;6.40;99.90;;;;;;4998977;28;20797;-76
2020/12/24 04:08:06;;;;;;;38.65;34.17;;;6.50;99.90;;;;;;4998807;28;20394;-76
2020/12/24 04:10:32;;;;;;;37.15;32.45;;;6.40;99.90;;;;;;4996393;28;20422;-76
2020/12/24 04:12:58;;;;;;;35.53;31.38;;;6.30;99.90;;;;;;4997429;28;20401;-76
2020/12/24 04:15:25;;;;;;;36.42;32.33;;;6.40;99.90;;;;;;4996389;28;20406;-76
2020/12/24 04:17:51;;;;;;;36.95;32.00;;;6.40;99.90;;;;;;4995510;28;20998;-75
2020/12/24 04:20:18;;;;;;;37.60;32.30;;;6.50;99.90;;;;;;4996013;28;20484;-75
2020/12/24 04:22:43;;;;;;;40.05;33.53;;;6.50;99.90;;;;;;4978271;28;20410;-76
2020/12/24 04:25:10;;;;;;;45.80;38.85;;;6.50;99.90;;;;;;4980081;28;20405;-75
2020/12/24 04:27:36;;;;;;;47.08;40.47;;;;;;;;;;4975314;28;20406;-76
2020/12/24 04:30:03;;;;;;;49.30;41.50;;;6.30;99.90;;;;;;4999034;28;20403;-76
2020/12/24 04:32:28;;;;;;;48.63;41.40;;;6.10;99.90;;;;;;4980541;28;20412;-76
2020/12/24 04:34:54;;;;;;;39.47;35.17;;;6.00;99.90;;;;;;4978755;28;20437;-75
2020/12/24 04:37:21;;;;;;;39.53;34.67;;;6.10;99.90;;;;;;4999340;28;20488;-76
2020/12/24 04:39:47;;;;;;;40.80;33.92;;;6.10;99.90;;;;;;4999646;28;20423;-76
2020/12/24 04:42:14;;;;;;;39.75;34.63;;;6.20;99.90;;;;;;5000277;28;20408;-75
2020/12/24 04:44:42;;;;;;;40.53;34.70;;;6.20;99.90;;;;;;4981823;28;20410;-76
2020/12/24 04:47:08;;;;;;;38.38;32.58;;;6.30;99.90;;;;;;4983751;28;20421;-76
2020/12/24 04:49:35;;;;;;;40.22;34.25;;;6.30;99.90;;;;;;4980549;28;20761;-76
2020/12/24 04:52:01;;;;;;;38.80;33.10;;;6.40;99.90;;;;;;4998813;28;20481;-76
2020/12/24 04:54:31;;;;;;;38.67;33.85;;;6.40;99.90;;;;;;4997031;28;20402;-76
2020/12/24 04:57:06;;;;;;;38.28;32.28;;;6.30;99.90;;;;;;4996133;28;20387;-76
2020/12/24 04:59:32;;;;;;;36.40;31.73;;;6.40;99.90;;;;;;4987127;28;20400;-76
2020/12/24 05:02:00;;;;;;;37.33;32.17;;;6.30;99.90;;;;;;4983829;28;20410;-76
2020/12/24 05:04:26;;;;;;;45.83;39.13;;;6.40;99.90;;;;;;5004313;28;20416;-76
2020/12/24 05:06:58;;;;;;;37.58;32.90;;;6.30;99.90;;;;;;4992689;28;20457;-76
2020/12/24 05:09:24;;;;;;;39.63;33.10;;;6.30;99.90;;;;;;4985333;28;20455;-75
2020/12/24 05:11:54;;;;;;;36.17;31.65;;;6.30;99.90;;;;;;4986753;28;20442;-75
2020/12/24 05:14:21;;;;;;;34.70;30.95;;;6.40;99.90;;;;;;4995006;28;20405;-75
2020/12/24 05:17:02;;;;;;;40.90;36.10;;;6.40;99.90;;;;;;5002058;28;20443;-75
2020/12/24 05:19:30;;;;;;;44.25;38.35;;;6.30;99.90;;;;;;4998644;28;20881;-76
2020/12/24 05:21:57;;;;;;;37.88;33.65;;;6.30;99.90;;;;;;4984211;28;20412;-76
2020/12/24 05:24:27;;;;;;;39.20;34.97;;;6.20;99.90;;;;;;4997728;28;20754;-76
2020/12/24 05:27:08;;;;;;;46.80;38.87;;;6.10;99.90;;;;;;4999792;28;20497;-76
2020/12/24 05:29:36;;;;;;;49.70;42.90;;;6.00;99.90;;;;;;4985170;28;20403;-76
2020/12/24 05:32:04;;;;;;;52.50;44.35;;;5.80;99.90;;;;;;4993174;28;20501;-75
2020/12/24 05:34:30;;;;;;;42.87;37.57;;;5.70;99.90;;;;;;4997400;28;20422;-76
2020/12/24 05:37:09;;;;;;;42.60;35.25;;;5.70;99.90;;;;;;4998504;28;20423;-76
2020/12/24 05:39:35;;;;;;;46.95;37.58;;;5.80;99.90;;;;;;4997278;28;20497;-76
2020/12/24 05:42:04;;;;;;;40.75;33.25;;;5.80;99.90;;;;;;5001280;28;20932;-75
2020/12/24 05:44:30;;;;;;;37.22;32.63;;;5.80;99.90;;;;;;4981503;28;20430;-76
2020/12/24 05:46:56;;;;;;;37.58;33.45;;;5.90;99.90;;;;;;4981332;28;20446;-76
2020/12/24 05:49:23;;;;;;;37.58;32.45;;;5.80;99.90;;;;;;5003874;28;20398;-75
2020/12/24 05:51:51;;;;;;;37.78;32.47;;;5.70;99.90;;;;;;4994361;28;20410;-76
2020/12/24 05:54:18;;;;;;;37.77;31.23;;;5.70;99.90;;;;;;4996815;28;20402;-76
2020/12/24 05:56:44;;;;;;;40.05;35.67;;;5.70;99.90;;;;;;4999517;28;20908;-76
2020/12/24 05:59:15;;;;;;;36.83;32.53;;;5.60;99.90;;;;;;4980695;28;20465;-76
2020/12/24 06:01:48;;;;;;;47.78;39.78;;;5.60;99.90;;;;;;4987520;28;20398;-76
2020/12/24 06:04:27;;;;;;;41.47;36.70;;;5.50;99.90;;;;;;4959617;28;20817;-75
2020/12/24 06:07:06;;;;;;;39.90;34.00;;;5.40;99.90;;;;;;4961741;28;20936;-76
2020/12/24 06:09:36;;;;;;;54.75;46.33;;;;;;;;;;4979257;28;20468;-76
2020/12/24 06:12:16;;;;;;;55.42;46.58;;;5.40;99.90;;;;;;4963216;28;20522;-76
2020/12/24 06:14:47;;;;;;;57.08;46.90;;;5.30;99.90;;;;;;4974537;28;20806;-76
2020/12/24 06:17:14;;;;;;;60.20;49.22;;;5.20;99.90;;;;;;4975942;28;20428;-75
2020/12/24 06:19:41;;;;;;;52.77;45.07;;;5.10;99.90;;;;;;4977375;28;20923;-75
2020/12/24 06:22:08;;;;;;;49.25;40.38;;;5.00;99.90;;;;;;4978203;28;20412;-76
2020/12/24 06:24:37;;;;;;;57.17;45.95;;;5.10;99.90;;;;;;4975336;28;20414;-75
2020/12/24 06:27:07;;;;;;;56.00;46.70;;;5.00;99.90;;;;;;4990760;28;20427;-75
2020/12/24 06:29:36;;;;;;;54.27;45.40;;;5.00;99.90;;;;;;4966287;28;20413;-76
2020/12/24 06:32:05;;;;;;;47.97;38.60;;;5.00;99.90;;;;;;4986465;28;20414;-75
2020/12/24 06:34:31;;;;;;;43.85;35.88;;;5.10;99.90;;;;;;4971047;28;20404;-75
2020/12/24 06:37:11;;;;;;;41.07;35.00;;;5.10;99.90;;;;;;4963068;28;20387;-75
2020/12/24 06:39:39;;;;;;;41.23;35.60;;;5.10;99.90;;;;;;4977405;28;20469;-76
2020/12/24 06:42:06;;;;;;;43.45;35.58;;;5.20;99.90;;;;;;4977030;28;20410;-76
2020/12/24 06:44:48;;;;;;;41.55;34.97;;;5.30;99.90;;;;;;4976868;28;20863;-76
2020/12/24 06:47:18;;;;;;;38.67;34.47;;;5.20;99.90;;;;;;4975556;28;20422;-75
2020/12/24 06:49:44;;;;;;;36.47;32.58;;;5.10;99.90;;;;;;4975076;28;20404;-76
2020/12/24 06:52:10;;;;;;;37.47;32.47;;;5.10;99.90;;;;;;4975437;28;20397;-75
2020/12/24 06:54:40;;;;;;;39.88;34.67;;;5.00;99.90;;;;;;4973787;28;20400;-75
2020/12/24 06:57:22;;;;;;;44.15;38.47;;;5.00;99.90;;;;;;4975893;28;20408;-76
2020/12/24 06:59:48;;;;;;;54.75;46.03;;;4.80;99.90;;;;;;4977706;28;20396;-76
2020/12/24 07:02:24;;;;;;;45.50;39.35;;;4.60;99.90;;;;;;4977380;28;20415;-75
2020/12/24 07:04:50;;;;;;;48.33;41.67;;;4.60;99.90;;;;;;4968653;28;20421;-75
2020/12/24 07:07:42;;;;;;;54.10;46.73;;;4.60;99.90;;;;;;4958763;28;20539;-75
2020/12/24 07:10:08;;;;;;;43.67;38.42;;;4.50;99.90;;;;;;4952805;28;20437;-75
2020/12/24 07:12:35;;;;;;;44.70;39.30;;;4.60;99.90;;;;;;4957258;28;20490;-76
2020/12/24 07:15:21;;;;;;;41.00;35.88;;;4.60;99.90;;;;;;4963487;28;20501;-76
2020/12/24 07:17:51;;;;;;;42.55;36.38;;;4.60;99.90;;;;;;4974147;28;20876;-76
2020/12/24 07:20:18;;;;;;;56.15;47.10;;;4.70;99.90;;;;;;4954823;28;20416;-76
2020/12/24 07:22:45;;;;;;;70.88;57.55;;;4.60;99.90;;;;;;4953316;28;20768;-76
2020/12/24 07:25:11;;;;;;;68.72;55.60;;;4.60;99.90;;;;;;4954961;28;20396;-76
2020/12/24 07:27:46;;;;;;;61.20;48.88;;;4.60;99.90;;;;;;4965444;28;20503;-76
2020/12/24 07:30:13;;;;;;;52.55;44.08;;;4.60;99.90;;;;;;4956469;28;20398;-76
2020/12/24 07:32:39;;;;;;;49.05;40.38;;;4.70;99.90;;;;;;4960896;28;20419;-76
2020/12/24 07:35:58;;;;;;;42.78;36.65;;;4.70;99.90;;;;;;4953984;28;20406;-75
2020/12/24 07:38:26;;;;;;;43.50;35.35;;;4.70;99.90;;;;;;4969281;28;20386;-77
2020/12/24 07:40:52;;;;;;;44.08;36.95;;;4.80;99.90;;;;;;4955510;28;20413;-77
2020/12/24 07:43:19;;;;;;;41.88;36.38;;;4.90;99.90;;;;;;4954635;28;20393;-77
2020/12/24 07:45:45;;;;;;;41.10;34.38;;;4.80;99.90;;;;;;4952209;28;20413;-77
2020/12/24 07:48:13;;;;;;;42.80;36.42;;;4.80;99.90;;;;;;4954480;28;20436;-77
2020/12/24 07:50:40;;;;;;;50.83;42.40;;;4.70;99.90;;;;;;4955280;28;20407;-77
2020/12/24 07:53:08;;;;;;;50.20;43.33;;;4.50;99.90;;;;;;4949411;28;20414;-78
2020/12/24 07:55:35;;;;;;;46.42;39.40;;;4.40;99.90;;;;;;4953492;28;20406;-77
2020/12/24 07:58:08;;;;;;;59.08;49.47;;;4.30;99.90;;;;;;4953779;28;20398;-77
2020/12/24 08:00:42;;;;;;;51.35;43.55;;;4.30;99.90;;;;;;4951139;28;20889;-77
2020/12/24 08:03:08;;;;;;;52.47;45.08;;;4.30;99.90;;;;;;4954601;28;20397;-77
2020/12/24 08:05:34;;;;;;;50.53;44.38;;;4.40;99.90;;;;;;4985829;28;20432;-76
2020/12/24 08:08:00;;;;;;;56.60;48.90;;;4.40;99.90;;;;;;4996649;28;20481;-77
2020/12/24 08:10:26;;;;;;;48.10;40.80;;;4.50;99.90;;;;;;4995509;28;20398;-78
2020/12/24 08:12:52;;;;;;;45.25;39.90;;;4.60;99.90;;;;;;4990704;28;20437;-77
2020/12/24 08:15:20;;;;;;;44.25;38.35;;;4.70;99.90;;;;;;4992905;28;20857;-74
2020/12/24 08:17:54;;;;;;;41.38;36.88;;;4.80;99.90;;;;;;4989709;28;20412;-75
2020/12/24 08:20:22;;;;;;;40.50;36.08;;;5.00;99.90;;;;;;4991397;28;20754;-77
2020/12/24 08:22:56;;;;;;;47.13;41.92;;;5.00;99.90;;;;;;4996573;28;20396;-78
2020/12/24 08:28:53;;;;;;;54.53;45.22;;;4.80;99.90;;;;;;4996468;28;20452;-77
2020/12/24 08:31:20;;;;;;;51.90;45.13;;;4.80;99.90;;;;;;4999324;28;20391;-78
2020/12/24 08:33:50;;;;;;;49.13;41.47;;;4.90;99.90;;;;;;4995400;28;20396;-77
2020/12/24 08:36:19;;;;;;;44.13;38.65;;;4.90;99.90;;;;;;4997720;28;20398;-77
2020/12/24 08:38:45;;;;;;;44.43;38.40;;;5.00;99.90;;;;;;4994210;28;20398;-77
2020/12/24 08:41:22;;;;;;;44.55;39.60;;;5.10;99.90;;;;;;4990884;28;20410;-78
2020/12/24 08:43:52;;;;;;;41.92;37.00;;;5.20;99.90;;;;;;4981607;28;20432;-77
2020/12/24 08:46:18;;;;;;;42.08;37.30;;;5.20;99.90;;;;;;4992025;28;20789;-78
2020/12/24 08:48:44;;;;;;;40.42;35.95;;;5.30;99.90;;;;;;4981916;28;20410;-77
2020/12/24 08:51:15;;;;;;;38.72;34.67;;;5.30;99.90;;;;;;4998511;28;20421;-77
2020/12/24 08:53:41;;;;;;;41.00;36.55;;;5.30;99.90;;;;;;4978700;28;20403;-78
2020/12/24 08:56:12;;;;;;;46.83;40.88;;;5.20;99.90;;;;;;4974711;28;20800;-78
2020/12/24 08:58:50;;;;;;;41.75;35.97;;;5.10;99.90;;;;;;4990914;28;20406;-78
2020/12/24 09:01:17;;;;;;;49.67;42.27;;;5.20;99.90;;;;;;4994288;28;20403;-78
2020/12/24 09:03:43;;;;;;;55.53;46.28;;;5.30;99.90;;;;;;4992767;28;20413;-78
2020/12/24 09:06:11;;;;;;;46.85;40.55;;;5.20;99.90;;;;;;4992796;28;20446;-77
2020/12/24 09:08:37;;;;;;;45.35;38.58;;;5.20;99.90;;;;;;4999225;28;20457;-78
2020/12/24 09:11:03;;;;;;;68.30;55.30;;;5.30;99.90;;;;;;5002951;28;20400;-78
2020/12/24 09:13:29;;;;;;;59.13;49.17;;;5.20;99.90;;;;;;4990161;28;20406;-77
2020/12/24 09:16:09;;;;;;;56.15;47.75;;;5.30;99.90;;;;;;4995649;28;20394;-78
2020/12/24 09:18:34;;;;;;;62.53;54.22;;;5.30;99.90;;;;;;4998298;28;20393;-77
2020/12/24 09:21:08;;;;;;;52.80;46.55;;;5.30;99.90;;;;;;4988546;28;20405;-75
2020/12/24 09:23:34;;;;;;;56.70;49.13;;;5.40;99.90;;;;;;5002435;28;20896;-75
2020/12/24 09:26:00;;;;;;;53.90;48.00;;;5.50;99.90;;;;;;4988389;28;20418;-75
2020/12/24 09:28:27;;;;;;;88.40;68.85;;;5.60;99.90;;;;;;5001637;28;20403;-75
2020/12/24 09:30:57;;;;;;;78.63;63.33;;;5.70;99.90;;;;;;4998488;28;20420;-74
2020/12/24 09:33:24;;;;;;;56.80;49.30;;;5.70;99.90;;;;;;4993890;28;20430;-75
2020/12/24 09:35:50;;;;;;;57.83;50.90;;;5.80;99.90;;;;;;4995746;28;20398;-74
2020/12/24 09:38:16;;;;;;;64.68;55.50;;;5.80;99.90;;;;;;4993863;28;20417;-74
2020/12/24 09:40:42;;;;;;;60.22;51.85;;;5.90;99.90;;;;;;4980393;28;20758;-75
2020/12/24 09:43:08;;;;;;;51.47;45.65;;;;;;;;;;4990605;28;20403;-75
2020/12/24 09:45:35;;;;;;;49.92;43.58;;;;;;;;;;4995002;28;20979;-74
2020/12/24 09:48:01;;;;;;;48.33;42.60;;;6.10;99.90;;;;;;4979324;28;20413;-75
2020/12/24 09:50:29;;;;;;;56.38;47.42;;;6.50;99.90;;;;;;4979546;28;20466;-75
2020/12/24 09:52:55;;;;;;;53.42;44.92;;;6.50;99.90;;;;;;4997366;28;20748;-74
2020/12/24 09:55:20;;;;;;;58.77;49.50;;;6.50;99.90;;;;;;4994238;28;20391;-74
2020/12/24 09:57:46;;;;;;;53.33;44.20;;;6.40;99.90;;;;;;5000049;28;20402;-75
2020/12/24 10:00:13;;;;;;;48.55;42.33;;;6.40;99.90;;;;;;4997359;28;20418;-75
2020/12/24 10:02:39;;;;;;;47.50;42.13;;;6.50;99.90;;;;;;4995946;28;20426;-74
2020/12/24 10:05:06;;;;;;;44.27;39.13;;;;;;;;;;4991101;28;21093;-77
2020/12/24 10:07:33;;;;;;;44.50;39.63;;;;;;;;;;4996936;28;20417;-77
2020/12/24 10:09:59;;;;;;;40.97;36.45;;;;;;;;;;4994226;28;20398;-77
2020/12/24 10:12:26;;;;;;;45.45;38.95;;;;;;;;;;4994724;28;20668;-75
2020/12/24 10:14:56;;;;;;;49.75;41.30;;;6.60;99.90;;;;;;4992410;28;20473;-75
2020/12/24 10:17:22;;;;;;;47.47;40.97;;;7.00;99.90;;;;;;4980212;28;20406;-75
2020/12/24 10:19:51;;;;;;;46.70;40.55;;;7.10;99.90;;;;;;4997795;28;20399;-75
2020/12/24 10:22:18;;;;;;;46.28;39.38;;;7.20;99.90;;;;;;4998703;28;20405;-75
2020/12/24 10:24:44;;;;;;;45.63;39.63;;;7.20;99.90;;;;;;4980995;28;20917;-75
2020/12/24 10:27:12;;;;;;;45.83;39.70;;;7.20;99.90;;;;;;5000121;28;20469;-75
2020/12/24 10:29:38;;;;;;;48.72;41.67;;;7.20;99.90;;;;;;4996761;28;20426;-75
2020/12/24 10:32:04;;;;;;;49.75;44.17;;;7.20;99.90;;;;;;4998100;28;20505;-75
2020/12/24 10:34:30;;;;;;;47.40;41.80;;;7.20;99.90;;;;;;4999757;28;20947;-75
2020/12/24 10:36:57;;;;;;;45.83;39.95;;;7.20;99.90;;;;;;4977917;28;20397;-75
2020/12/24 10:39:23;;;;;;;43.58;37.75;;;7.10;99.90;;;;;;4993506;28;20402;-75
2020/12/24 10:41:51;;;;;;;45.97;38.87;;;7.20;99.90;;;;;;4998462;28;20816;-75
2020/12/24 10:44:17;;;;;;;43.92;38.33;;;7.30;99.90;;;;;;4999477;28;20403;-75
2020/12/24 10:46:44;;;;;;;39.67;35.28;;;7.30;99.90;;;;;;4996241;28;20425;-75
2020/12/24 10:49:10;;;;;;;42.75;36.83;;;7.30;99.90;;;;;;4981778;28;20406;-75
2020/12/24 10:51:36;;;;;;;40.92;36.50;;;7.40;99.90;;;;;;4990756;28;20783;-75
2020/12/24 10:54:04;;;;;;;38.97;34.72;;;7.50;99.90;;;;;;4998953;28;20393;-75
2020/12/24 10:56:30;;;;;;;41.88;36.50;;;7.60;99.90;;;;;;4985690;28;20896;-75
2020/12/24 10:58:57;;;;;;;41.05;36.55;;;7.70;99.90;;;;;;4991782;28;20398;-75
2020/12/24 11:01:26;;;;;;;41.38;36.88;;;;;;;;;;4990352;28;20495;-77
2020/12/24 11:03:52;;;;;;;39.20;35.00;;;;;;;;;;4988515;28;20422;-75
2020/12/24 11:06:19;;;;;;;40.37;36.07;;;;;;;;;;4994716;28;20416;-75
2020/12/24 11:08:45;;;;;;;41.43;36.97;;;7.80;99.90;;;;;;4997007;28;20747;-74
2020/12/24 11:11:12;;;;;;;39.38;35.25;;;8.10;99.90;;;;;;5000285;28;20393;-74
2020/12/24 11:13:38;;;;;;;37.90;33.85;;;8.30;99.90;;;;;;4975371;28;20735;-75
2020/12/24 11:16:05;;;;;;;39.03;34.72;;;8.30;99.90;;;;;;4986578;28;20426;-75
2020/12/24 11:18:31;;;;;;;38.50;33.57;;;;;;;;;;5000148;28;20959;-74
2020/12/24 11:20:57;;;;;;;39.13;32.38;;;8.30;99.90;;;;;;4995478;28;20410;-75
2020/12/24 11:23:23;;;;;;;36.85;32.22;;;8.50;99.90;;;;;;4999879;28;20389;-75
2020/12/24 11:25:49;;;;;;;36.33;32.40;;;;;;;;;;4996458;28;20423;-75
2020/12/24 11:28:15;;;;;;;37.53;33.45;;;;;;;;;;4998941;28;20403;-75
2020/12/24 11:30:41;;;;;;;36.05;32.03;;;;;;;;;;4964393;28;20495;-75
2020/12/24 11:33:08;;;;;;;34.35;30.65;;;8.50;99.90;;;;;;4980649;28;20875;-75
2020/12/24 11:35:34;;;;;;;37.75;31.35;;;8.90;99.90;;;;;;4995831;28;20448;-75
2020/12/24 11:38:00;;;;;;;32.07;28.57;;;8.90;99.90;;;;;;4993191;28;20398;-76
2020/12/24 11:40:26;;;;;;;32.67;28.73;;;8.90;99.90;;;;;;4978592;28;20413;-76
2020/12/24 11:42:52;;;;;;;34.58;30.08;;;;;;;;;;4996188;28;20739;-75
2020/12/24 11:45:18;;;;;;;32.83;29.33;;;;;;;;;;4997486;28;20394;-76
2020/12/24 11:47:44;;;;;;;33.58;29.98;;;;;;;;;;4994294;28;20458;-75
2020/12/24 11:50:11;;;;;;;36.40;31.60;;;;;;;;;;4986532;28;20521;-75
2020/12/24 11:52:38;;;;;;;37.22;33.25;;;;;;;;;;4988956;28;20457;-75
2020/12/24 11:55:05;;;;;;;39.88;35.58;;;;;;;;;;4989630;28;20493;-75
2020/12/24 11:57:31;;;;;;;37.17;31.77;;;;;;;;;;4991938;28;20425;-75
2020/12/24 11:59:57;;;;;;;38.95;34.58;;;;;;;;;;4994843;28;20845;-76
2020/12/24 12:02:23;;;;;;;37.15;32.28;;;;;;;;;;4993580;28;20480;-76
2020/12/24 12:04:49;;;;;;;39.97;35.25;;;;;;;;;;4992420;28;20440;-76
2020/12/24 12:07:16;;;;;;;38.45;33.15;;;;;;;;;;4988828;28;20935;-76
2020/12/24 12:09:42;;;;;;;34.70;30.98;;;;;;;;;;4984038;28;20439;-76
2020/12/24 12:12:08;;;;;;;34.67;30.40;;;;;;;;;;4980268;28;20549;-75
2020/12/24 12:14:35;;;;;;;28.90;25.75;;;;;;;;;;4985540;28;20413;-76
2020/12/24 12:17:01;;;;;;;27.40;23.60;;;;;;;;;;4969321;28;20931;-75
2020/12/24 12:19:27;;;;;;;29.85;26.02;;;;;;;;;;4975969;28;20507;-76
2020/12/24 12:21:53;;;;;;;21.17;18.27;;;;;;;;;;4980210;28;20453;-75
2020/12/24 12:24:20;;;;;;;21.45;19.13;;;;;;;;;;4990732;28;20490;-76
2020/12/24 12:26:47;;;;;;;16.40;13.97;;;;;;;;;;4990267;28;20484;-76
2020/12/24 12:29:13;;;;;;;15.05;12.15;;;;;;;;;;4986860;28;20406;-75
2020/12/24 12:31:39;;;;;;;16.10;13.93;;;;;;;;;;4995445;28;20740;-75
2020/12/24 12:34:05;;;;;;;16.15;14.45;;;;;;;;;;4992848;28;20421;-75
2020/12/24 12:36:31;;;;;;;17.73;15.40;;;9.70;99.90;;;;;;4991873;28;20485;-75
2020/12/24 12:38:57;;;;;;;18.38;16.35;;;9.70;99.90;;;;;;4988229;28;20506;-76
2020/12/24 12:41:24;;;;;;;21.48;18.60;;;9.60;99.90;;;;;;4987046;28;20399;-76
2020/12/24 12:43:51;;;;;;;21.65;18.38;;;9.70;99.90;;;;;;4982580;28;20411;-76
2020/12/24 12:46:19;;;;;;;21.13;17.75;;;9.60;99.90;;;;;;4976759;28;20439;-76
2020/12/24 12:48:45;;;;;;;20.25;17.05;;;9.60;99.90;;;;;;4977245;28;20396;-75
2020/12/24 12:51:11;;;;;;;17.50;15.35;;;;;;;;;;4971312;28;20406;-76
2020/12/24 12:53:37;;;;;;;14.50;12.93;;;;;;;;;;4996774;28;20413;-75
2020/12/24 12:56:03;;;;;;;15.23;13.25;;;;;;;;;;4979230;28;20883;-76
2020/12/24 12:58:30;;;;;;;13.73;12.27;;;;;;;;;;4998774;28;20403;-76
2020/12/24 13:00:56;;;;;;;13.52;12.10;;;;;;;;;;4993275;28;20490;-75